createdAt,value
2024-04-12T00:00:55.277Z,14.81
2024-04-12T00:03:04.224Z,14.71
2024-04-12T00:05:07.750Z,14.78
2024-04-12T00:07:19.506Z,14.70
2024-04-12T00:09:25.536Z,14.78
2024-04-12T00:11:27.473Z,14.80
2024-04-12T00:13:32.916Z,14.84
2024-04-12T00:15:35.401Z,14.93
2024-04-12T00:17:40.194Z,14.88
2024-04-12T00:19:47.640Z,14.85
2024-04-12T00:21:53.965Z,14.67
2024-04-12T00:23:57.245Z,14.76
2024-04-12T00:26:03.847Z,14.66
2024-04-12T00:28:07.020Z,14.73
2024-04-12T00:30:12.806Z,14.71
2024-04-12T00:32:17.652Z,14.65
2024-04-12T00:34:27.845Z,14.80
2024-04-12T00:36:35.471Z,14.76
2024-04-12T00:38:40.124Z,14.81
2024-04-12T00:40:49.962Z,14.71
2024-04-12T00:42:56.989Z,14.82
2024-04-12T00:45:05.458Z,14.73
2024-04-12T00:47:11.780Z,14.68
2024-04-12T00:49:20.127Z,14.67
2024-04-12T00:51:25.760Z,14.75
2024-04-12T00:53:33.855Z,14.74
2024-04-12T00:55:40.001Z,14.80
2024-04-12T00:57:44.948Z,14.77
2024-04-12T00:59:47.037Z,14.59
2024-04-12T01:01:53.802Z,14.77
2024-04-12T01:03:56.946Z,14.65
2024-04-12T01:06:02.599Z,14.67
2024-04-12T01:08:07.442Z,14.78
2024-04-12T01:10:14.895Z,14.61
2024-04-12T01:12:18.719Z,14.76
2024-04-12T01:14:26.495Z,14.63
2024-04-12T01:16:29.626Z,14.75
2024-04-12T01:18:34.583Z,14.74
2024-04-12T01:20:37.235Z,14.73
2024-04-12T01:22:46.135Z,14.71
2024-04-12T01:24:51.734Z,14.52
2024-04-12T01:26:57.401Z,14.58
2024-04-12T01:29:00.117Z,14.69
2024-04-12T01:31:04.959Z,14.68
2024-04-12T01:33:09.765Z,14.71
2024-04-12T01:35:17.920Z,14.64
2024-04-12T01:37:22.270Z,14.59
2024-04-12T01:39:30.016Z,14.44
2024-04-12T01:41:34.945Z,14.71
2024-04-12T01:43:39.898Z,14.70
2024-04-12T01:45:41.801Z,14.64
2024-04-12T01:47:44.711Z,14.67
2024-04-12T01:49:49.758Z,14.46
2024-04-12T01:51:51.602Z,14.62
2024-04-12T01:53:58.857Z,14.39
2024-04-12T01:56:01.187Z,14.41
2024-04-12T01:58:08.835Z,14.53
2024-04-12T02:00:13.448Z,14.49
2024-04-12T02:02:18.216Z,14.54
2024-04-12T02:04:23.068Z,14.45
2024-04-12T02:06:28.619Z,14.53
2024-04-12T02:08:31.387Z,14.52
2024-04-12T02:10:35.900Z,14.49
2024-04-12T02:12:38.079Z,14.43
2024-04-12T02:14:45.281Z,14.52
2024-04-12T02:16:52.091Z,14.49
2024-04-12T02:18:59.497Z,13.64
2024-04-12T02:21:06.476Z,14.53
2024-04-12T02:23:17.055Z,14.45
2024-04-12T02:25:18.997Z,14.40
2024-04-12T02:27:24.123Z,14.44
2024-04-12T02:29:26.272Z,14.51
2024-04-12T02:31:36.932Z,14.42
2024-04-12T02:33:39.261Z,14.53
2024-04-12T02:35:46.625Z,14.50
2024-04-12T02:37:50.380Z,14.25
2024-04-12T02:39:55.259Z,14.53
2024-04-12T02:41:57.345Z,14.50
2024-04-12T02:44:05.168Z,14.46
2024-04-12T02:46:07.908Z,14.49
2024-04-12T02:48:15.059Z,14.50
2024-04-12T02:50:18.097Z,14.51
2024-04-12T02:52:23.586Z,14.50
2024-04-12T02:54:29.189Z,14.40
2024-04-12T02:56:35.048Z,14.49
2024-04-12T02:58:40.680Z,14.27
2024-04-12T03:00:46.261Z,14.50
2024-04-12T03:02:48.656Z,14.39
2024-04-12T03:04:55.804Z,14.48
2024-04-12T03:06:57.806Z,14.40
2024-04-12T03:09:05.128Z,14.37
2024-04-12T03:11:23.051Z,14.46
2024-04-12T03:13:30.713Z,14.35
2024-04-12T03:15:35.929Z,14.42
2024-04-12T03:17:41.005Z,14.34
2024-04-12T03:19:42.892Z,14.43
2024-04-12T03:21:53.067Z,14.45
2024-04-12T03:23:56.679Z,14.43
2024-04-12T03:26:03.689Z,14.45
2024-04-12T03:28:10.051Z,14.43
2024-04-12T03:30:17.500Z,14.42
2024-04-12T03:32:26.550Z,14.52
2024-04-12T03:34:29.647Z,14.46
2024-04-12T03:36:54.748Z,14.46
2024-04-12T03:39:26.098Z,14.36
2024-04-12T03:41:34.027Z,14.63
2024-04-12T03:43:36.272Z,14.50
2024-04-12T03:45:41.586Z,14.48
2024-04-12T03:47:46.717Z,14.48
2024-04-12T03:49:56.355Z,14.34
2024-04-12T03:51:58.379Z,14.54
2024-04-12T03:54:12.443Z,14.51
2024-04-12T03:56:14.657Z,14.52
2024-04-12T03:58:20.022Z,14.45
2024-04-12T04:00:25.116Z,14.36
2024-04-12T04:02:34.140Z,14.39
2024-04-12T04:04:46.532Z,14.44
2024-04-12T04:06:50.402Z,14.42
2024-04-12T04:08:55.516Z,14.22
2024-04-12T04:11:04.079Z,14.37
2024-04-12T04:13:09.048Z,14.20
2024-04-12T04:15:11.239Z,14.47
2024-04-12T04:17:15.799Z,14.40
2024-04-12T04:19:19.841Z,14.32
2024-04-12T04:21:25.752Z,14.18
2024-04-12T04:23:27.818Z,14.30
2024-04-12T04:25:33.349Z,14.32
2024-04-12T04:27:47.720Z,14.38
2024-04-12T04:29:56.942Z,14.35
2024-04-12T04:31:59.175Z,14.43
2024-04-12T04:34:06.435Z,14.40
2024-04-12T04:36:10.666Z,14.26
2024-04-12T04:38:16.132Z,14.40
2024-04-12T04:40:20.160Z,14.35
2024-04-12T04:42:24.753Z,14.33
2024-04-12T04:44:33.246Z,14.40
2024-04-12T04:46:35.110Z,14.41
2024-04-12T04:48:39.907Z,14.36
2024-04-12T04:50:43.357Z,14.30
2024-04-12T04:52:48.435Z,14.29
2024-04-12T04:54:50.812Z,14.37
2024-04-12T04:56:55.800Z,14.37
2024-04-12T04:58:58.475Z,14.26
2024-04-12T05:01:06.126Z,14.11
2024-04-12T05:03:09.792Z,14.33
2024-04-12T05:05:15.923Z,14.19
2024-04-12T05:07:18.316Z,14.29
2024-04-12T05:09:24.821Z,14.25
2024-04-12T05:11:38.578Z,14.49
2024-04-12T05:13:43.963Z,14.38
2024-04-12T05:15:53.832Z,14.33
2024-04-12T05:18:05.283Z,14.40
2024-04-12T05:20:16.109Z,14.46
2024-04-12T05:22:21.572Z,14.46
2024-04-12T05:24:25.632Z,14.47
2024-04-12T05:26:33.321Z,13.85
2024-04-12T05:28:39.793Z,14.46
2024-04-12T05:31:13.059Z,14.54
2024-04-12T05:33:18.568Z,14.55
2024-04-12T05:35:32.674Z,14.48
2024-04-12T05:37:37.357Z,14.60
2024-04-12T05:39:46.908Z,14.65
2024-04-12T05:41:54.494Z,14.39
2024-04-12T05:44:01.082Z,14.56
2024-04-12T05:46:07.033Z,14.57
2024-04-12T05:48:17.825Z,14.50
2024-04-12T05:51:04.635Z,14.87
2024-04-12T05:53:09.591Z,14.81
2024-04-12T05:55:16.148Z,14.46
2024-04-12T05:57:24.264Z,14.52
2024-04-12T05:59:31.228Z,14.86
2024-04-12T06:01:35.283Z,14.37
2024-04-12T06:03:54.093Z,14.84
2024-04-12T06:06:00.877Z,14.88
2024-04-12T06:08:07.671Z,14.46
2024-04-12T06:10:10.186Z,14.85
2024-04-12T06:12:18.273Z,15.03
2024-04-12T06:14:25.714Z,15.01
2024-04-12T06:16:40.424Z,14.98
2024-04-12T06:18:55.951Z,15.03
2024-04-12T06:21:06.786Z,15.12
2024-04-12T06:23:12.238Z,15.16
2024-04-12T06:25:17.436Z,15.13
2024-04-12T06:27:33.021Z,15.23
2024-04-12T06:29:39.904Z,15.20
2024-04-12T06:31:44.651Z,15.09
2024-04-12T06:33:52.333Z,15.23
2024-04-12T06:36:08.350Z,15.30
2024-04-12T06:38:18.594Z,15.12
2024-04-12T06:40:29.861Z,15.04
2024-04-12T06:42:37.181Z,15.25
2024-04-12T06:44:46.670Z,15.22
2024-04-12T06:46:59.559Z,15.06
2024-04-12T06:49:15.842Z,15.23
2024-04-12T06:51:18.539Z,14.84
2024-04-12T06:53:28.020Z,15.07
2024-04-12T06:55:31.655Z,15.10
2024-04-12T06:57:36.620Z,14.97
2024-04-12T06:59:44.927Z,14.96
2024-04-12T07:01:47.610Z,15.07
2024-04-12T07:03:55.020Z,15.07
2024-04-12T07:05:58.241Z,14.93
2024-04-12T07:08:07.219Z,14.97
2024-04-12T07:10:12.701Z,14.92
2024-04-12T07:12:24.294Z,15.06
2024-04-12T07:14:27.890Z,14.92
2024-04-12T07:16:38.170Z,15.13
2024-04-12T07:18:43.824Z,15.16
2024-04-12T07:20:50.041Z,15.35
2024-04-12T07:22:52.889Z,15.30
2024-04-12T07:25:00.714Z,15.42
2024-04-12T07:27:09.839Z,15.51
2024-04-12T07:29:14.673Z,15.27
2024-04-12T07:31:17.270Z,15.40
2024-04-12T07:33:25.966Z,15.44
2024-04-12T07:35:28.396Z,15.27
2024-04-12T07:37:37.611Z,15.42
2024-04-12T07:39:42.284Z,15.27
2024-04-12T07:41:49.847Z,15.51
2024-04-12T07:43:58.345Z,15.68
2024-04-12T07:46:06.558Z,15.48
2024-04-12T07:48:30.451Z,15.66
2024-04-12T07:50:40.566Z,15.67
2024-04-12T07:53:23.259Z,15.70
2024-04-12T07:55:30.080Z,15.72
2024-04-12T07:57:32.287Z,15.90
2024-04-12T07:59:41.277Z,16.04
2024-04-12T08:01:46.839Z,15.99
2024-04-12T08:03:58.529Z,16.32
2024-04-12T08:06:01.381Z,16.48
2024-04-12T08:08:15.990Z,16.49
2024-04-12T08:10:30.539Z,16.55
2024-04-12T08:12:35.441Z,16.63
2024-04-12T08:14:53.436Z,16.66
2024-04-12T08:16:56.954Z,16.37
2024-04-12T08:19:01.629Z,16.66
2024-04-12T08:21:10.377Z,16.77
2024-04-12T08:23:19.258Z,16.81
2024-04-12T08:30:00.002Z,16.88
2024-04-12T08:32:12.894Z,16.77
2024-04-12T08:34:18.271Z,16.71
2024-04-12T08:36:20.334Z,16.84
2024-04-12T08:38:25.554Z,16.45
2024-04-12T08:40:27.959Z,16.63
2024-04-12T08:42:46.326Z,16.73
2024-04-12T08:44:48.909Z,16.73
2024-04-12T08:46:58.828Z,16.64
2024-04-12T08:49:01.729Z,16.53
2024-04-12T08:51:15.061Z,16.57
2024-04-12T08:53:21.994Z,16.66
2024-04-12T08:55:31.030Z,16.58
2024-04-12T08:57:35.211Z,16.75
2024-04-12T08:59:47.764Z,16.81
2024-04-12T09:01:53.893Z,16.97
2024-04-12T09:04:05.500Z,17.03
2024-04-12T09:06:16.246Z,16.87
2024-04-12T09:08:23.797Z,16.97
2024-04-12T09:10:28.811Z,16.94
2024-04-12T09:12:31.180Z,17.00
2024-04-12T09:14:42.166Z,16.96
2024-04-12T09:16:49.188Z,17.02
2024-04-12T09:19:16.329Z,16.76
2024-04-12T09:21:27.086Z,16.53
2024-04-12T09:23:53.189Z,16.64
2024-04-12T09:26:05.568Z,16.84
2024-04-12T09:28:14.804Z,16.70
2024-04-12T09:30:50.591Z,16.48
2024-04-12T09:33:01.995Z,16.37
2024-04-12T09:35:40.481Z,16.32
2024-04-12T09:37:55.456Z,16.29
2024-04-12T09:40:30.442Z,16.17
2024-04-12T09:42:51.848Z,16.44
2024-04-12T09:45:01.601Z,16.56
2024-04-12T09:47:22.842Z,16.51
2024-04-12T09:49:44.852Z,16.29
2024-04-12T09:52:04.301Z,16.53
2024-04-12T09:54:27.995Z,16.37
2024-04-12T09:56:49.369Z,16.55
2024-04-12T09:59:12.168Z,16.85
2024-04-12T10:01:32.521Z,16.92
2024-04-12T10:03:55.891Z,17.07
2024-04-12T10:06:16.705Z,17.16
2024-04-12T10:08:40.657Z,17.10
2024-04-12T10:11:02.766Z,17.10
2024-04-12T10:13:24.397Z,17.08
2024-04-12T10:15:45.072Z,17.17
2024-04-12T10:18:06.160Z,17.18
2024-04-12T10:20:29.550Z,17.23
2024-04-12T10:22:49.925Z,17.29
2024-04-12T10:25:13.554Z,17.31
2024-04-12T10:27:41.384Z,17.29
2024-04-12T10:30:04.556Z,17.19
2024-04-12T10:32:31.079Z,17.61
2024-04-12T10:34:52.935Z,17.50
2024-04-12T10:37:14.205Z,17.48
2024-04-12T10:39:21.490Z,17.45
2024-04-12T10:41:36.753Z,17.32
2024-04-12T10:43:44.101Z,17.47
2024-04-12T10:45:52.751Z,17.52
2024-04-12T10:47:56.468Z,17.49
2024-04-12T10:50:15.044Z,17.49
2024-04-12T10:52:32.526Z,17.52
2024-04-12T10:54:40.407Z,17.48
2024-04-12T10:56:56.860Z,17.68
2024-04-12T10:59:00.975Z,17.58
2024-04-12T11:01:06.751Z,17.66
2024-04-12T11:03:23.071Z,17.51
2024-04-12T11:05:41.200Z,18.02
2024-04-12T11:07:43.212Z,17.98
2024-04-12T11:09:59.072Z,18.34
2024-04-12T11:12:15.698Z,18.58
2024-04-12T11:14:29.562Z,17.87
2024-04-12T11:16:50.194Z,18.84
2024-04-12T11:19:10.920Z,18.74
2024-04-12T11:21:33.190Z,18.42
2024-04-12T11:23:53.703Z,18.69
2024-04-12T11:26:16.085Z,18.81
2024-04-12T11:28:49.667Z,18.58
2024-04-12T11:31:19.957Z,18.83
2024-04-12T11:33:36.291Z,18.69
2024-04-12T11:35:47.624Z,18.43
2024-04-12T11:37:51.254Z,18.57
2024-04-12T11:40:00.920Z,19.00
2024-04-12T11:42:04.690Z,18.76
2024-04-12T11:44:19.190Z,18.65
2024-04-12T11:46:26.351Z,18.86
2024-04-12T11:48:33.045Z,18.87
2024-04-12T11:50:37.968Z,18.46
2024-04-12T11:52:43.279Z,18.96
2024-04-12T11:54:52.789Z,18.61
2024-04-12T11:56:59.439Z,19.07
2024-04-12T11:59:02.489Z,19.36
2024-04-12T12:01:10.996Z,19.43
2024-04-12T12:03:17.958Z,19.57
2024-04-12T12:05:25.656Z,19.61
2024-04-12T12:07:31.266Z,19.70
2024-04-12T12:09:37.850Z,19.94
2024-04-12T12:11:44.702Z,20.41
2024-04-12T12:13:47.871Z,20.35
2024-04-12T12:15:53.545Z,20.45
2024-04-12T12:17:58.965Z,20.45
2024-04-12T12:20:05.884Z,20.17
2024-04-12T12:22:11.910Z,20.34
2024-04-12T12:24:16.650Z,20.42
2024-04-12T12:26:21.096Z,20.29
2024-04-12T12:28:28.093Z,20.45
2024-04-12T12:30:30.035Z,20.70
2024-04-12T12:32:36.692Z,20.77
2024-04-12T12:34:44.765Z,20.85
2024-04-12T12:36:51.229Z,20.51
2024-04-12T12:38:53.210Z,20.35
2024-04-12T12:40:59.054Z,20.44
2024-04-12T12:43:06.136Z,20.57
2024-04-12T12:45:13.252Z,20.52
2024-04-12T12:47:17.292Z,20.82
2024-04-12T12:49:26.621Z,20.58
2024-04-12T12:51:31.137Z,20.51
2024-04-12T12:53:38.118Z,20.75
2024-04-12T12:55:40.818Z,20.60
2024-04-12T12:57:46.269Z,20.78
2024-04-12T12:59:48.483Z,20.69
2024-04-12T13:01:53.094Z,20.45
2024-04-12T13:03:55.485Z,20.74
2024-04-12T13:06:07.916Z,20.61
2024-04-12T13:08:15.131Z,20.71
2024-04-12T13:10:23.663Z,20.89
2024-04-12T13:12:30.805Z,20.77
2024-04-12T13:14:33.432Z,20.90
2024-04-12T13:16:43.174Z,20.89
2024-04-12T13:18:47.212Z,20.80
2024-04-12T13:20:52.257Z,20.94
2024-04-12T13:22:54.140Z,21.01
2024-04-12T13:25:04.789Z,21.16
2024-04-12T13:27:08.672Z,21.06
2024-04-12T13:29:13.788Z,21.10
2024-04-12T13:31:17.972Z,21.04
2024-04-12T13:33:29.202Z,21.23
2024-04-12T13:35:35.501Z,21.32
2024-04-12T13:37:40.177Z,21.34
2024-04-12T13:39:41.990Z,21.25
2024-04-12T13:41:49.852Z,21.21
2024-04-12T13:43:52.182Z,20.85
2024-04-12T13:46:16.349Z,20.65
2024-04-12T13:48:38.427Z,20.94
2024-04-12T13:51:03.722Z,20.80
2024-04-12T13:53:11.012Z,20.93
2024-04-12T13:55:16.141Z,21.18
2024-04-12T13:57:25.536Z,21.02
2024-04-12T13:59:31.651Z,21.04
2024-04-12T14:01:36.281Z,21.28
2024-04-12T14:03:38.380Z,21.48
2024-04-12T14:05:43.762Z,21.36
2024-04-12T14:07:50.898Z,21.29
2024-04-12T14:09:55.837Z,21.11
2024-04-12T14:11:57.855Z,21.31
2024-04-12T14:14:05.347Z,21.58
2024-04-12T14:16:07.657Z,21.56
2024-04-12T14:18:12.215Z,21.74
2024-04-12T14:20:17.350Z,21.54
2024-04-12T14:22:21.862Z,21.68
2024-04-12T14:24:40.667Z,21.64
2024-04-12T14:26:45.623Z,21.59
2024-04-12T14:28:47.571Z,21.40
2024-04-12T14:30:56.708Z,21.34
2024-04-12T14:32:58.691Z,21.33
2024-04-12T14:35:10.458Z,21.39
2024-04-12T14:37:17.221Z,21.27
2024-04-12T14:39:29.825Z,21.40
2024-04-12T14:41:31.870Z,21.33
2024-04-12T14:43:36.896Z,21.39
2024-04-12T14:45:38.731Z,21.38
2024-04-12T14:47:52.178Z,21.59
2024-04-12T14:50:01.403Z,21.48
2024-04-12T14:52:12.622Z,21.52
2024-04-12T14:54:15.752Z,21.68
2024-04-12T14:56:20.490Z,21.55
2024-04-12T14:58:22.353Z,21.52
2024-04-12T15:00:28.129Z,21.43
2024-04-12T15:02:30.430Z,21.57
2024-04-12T15:04:53.686Z,21.35
2024-04-12T15:07:14.976Z,21.47
2024-04-12T15:09:35.104Z,21.48
2024-04-12T15:11:55.586Z,21.41
2024-04-12T15:14:15.770Z,21.47
2024-04-12T15:16:36.331Z,21.43
2024-04-12T15:18:56.848Z,21.38
2024-04-12T15:21:20.510Z,21.19
2024-04-12T15:23:40.989Z,20.97
2024-04-12T15:26:01.400Z,21.00
2024-04-12T15:28:21.979Z,20.93
2024-04-12T15:30:42.195Z,21.03
2024-04-12T15:33:02.840Z,20.91
2024-04-12T15:35:24.591Z,20.92
2024-04-12T15:37:47.785Z,20.95
2024-04-12T15:40:08.228Z,20.86
2024-04-12T15:42:28.848Z,20.85
2024-04-12T15:44:49.280Z,20.90
2024-04-12T15:47:03.922Z,20.95
2024-04-12T15:49:22.852Z,20.86
2024-04-12T15:51:29.433Z,20.49
2024-04-12T15:53:36.832Z,20.86
2024-04-12T15:55:59.040Z,20.73
2024-04-12T15:58:34.645Z,20.77
2024-04-12T16:00:55.243Z,20.61
2024-04-12T16:03:16.983Z,20.65
2024-04-12T16:05:38.378Z,20.63
2024-04-12T16:07:58.623Z,20.67
2024-04-12T16:10:21.857Z,20.62
2024-04-12T16:12:26.850Z,20.63
2024-04-12T16:14:28.844Z,20.66
2024-04-12T16:16:33.448Z,20.69
2024-04-12T16:18:37.973Z,20.57
2024-04-12T16:20:40.228Z,20.73
2024-04-12T16:22:45.009Z,20.76
2024-04-12T16:24:47.107Z,20.52
2024-04-12T16:26:56.358Z,20.36
2024-04-12T16:28:59.061Z,20.72
2024-04-12T16:31:06.054Z,20.42
2024-04-12T16:33:08.977Z,20.38
2024-04-12T16:35:14.845Z,20.64
2024-04-12T16:37:16.883Z,20.50
2024-04-12T16:39:21.847Z,20.42
2024-04-12T16:41:24.379Z,20.56
2024-04-12T16:43:33.603Z,20.40
2024-04-12T16:45:35.427Z,20.44
2024-04-12T16:47:44.722Z,20.47
2024-04-12T16:49:47.779Z,20.55
2024-04-12T16:52:02.982Z,20.43
2024-04-12T16:54:05.217Z,20.44
2024-04-12T16:56:09.941Z,20.39
2024-04-12T16:58:11.754Z,20.25
2024-04-12T17:00:19.823Z,20.36
2024-04-12T17:02:23.659Z,20.23
2024-04-12T17:04:28.301Z,20.19
2024-04-12T17:06:30.799Z,20.17
2024-04-12T17:08:35.319Z,20.14
2024-04-12T17:10:37.469Z,20.00
2024-04-12T17:12:42.430Z,20.05
2024-04-12T17:14:44.566Z,20.05
2024-04-12T17:16:51.674Z,19.92
2024-04-12T17:18:54.107Z,19.88
2024-04-12T17:21:00.035Z,19.98
2024-04-12T17:23:02.709Z,19.90
2024-04-12T17:25:09.462Z,19.69
2024-04-12T17:27:11.259Z,19.67
2024-04-12T17:29:35.863Z,19.61
2024-04-12T17:31:37.949Z,19.52
2024-04-12T17:33:45.435Z,19.48
2024-04-12T17:35:48.165Z,19.37
2024-04-12T17:37:52.832Z,19.39
2024-04-12T17:39:58.219Z,19.47
2024-04-12T17:42:03.185Z,19.38
2024-04-12T17:44:05.495Z,19.33
2024-04-12T17:46:10.015Z,19.42
2024-04-12T17:48:12.694Z,19.28
2024-04-12T17:50:23.067Z,19.21
2024-04-12T17:52:25.151Z,19.08
2024-04-12T17:54:31.077Z,19.21
2024-04-12T17:56:34.428Z,19.25
2024-04-12T17:58:39.021Z,19.20
2024-04-12T18:00:41.907Z,19.27
2024-04-12T18:02:53.838Z,18.98
2024-04-12T18:04:55.724Z,19.23
2024-04-12T18:07:03.060Z,19.21
2024-04-12T18:09:06.005Z,19.19
2024-04-12T18:11:12.928Z,19.18
2024-04-12T18:13:14.739Z,18.94
2024-04-12T18:15:21.059Z,19.14
2024-04-12T18:17:23.204Z,19.12
2024-04-12T18:19:28.010Z,19.08
2024-04-12T18:21:30.981Z,18.88
2024-04-12T18:23:38.544Z,18.92
2024-04-12T18:25:40.774Z,18.89
2024-04-12T18:27:45.420Z,18.80
2024-04-12T18:29:48.124Z,18.72
2024-04-12T18:31:56.825Z,18.69
2024-04-12T18:33:58.998Z,18.89
2024-04-12T18:36:13.577Z,18.82
2024-04-12T18:38:35.120Z,18.75
2024-04-12T18:40:59.018Z,18.85
2024-04-12T18:43:19.538Z,18.80
2024-04-12T18:45:24.086Z,18.70
2024-04-12T18:47:26.815Z,18.80
2024-04-12T18:49:32.414Z,18.68
2024-04-12T18:51:34.771Z,18.70
2024-04-12T18:53:39.511Z,18.61
2024-04-12T18:55:48.192Z,18.70
2024-04-12T18:57:53.100Z,18.68
2024-04-12T18:59:55.148Z,18.68
2024-04-12T19:01:59.935Z,18.62
2024-04-12T19:04:01.870Z,18.56
2024-04-12T19:06:08.378Z,18.43
2024-04-12T19:08:10.251Z,18.55
2024-04-12T19:10:15.886Z,18.45
2024-04-12T19:12:23.884Z,18.20
2024-04-12T19:14:28.585Z,18.20
2024-04-12T19:16:30.394Z,18.18
2024-04-12T19:18:35.070Z,18.10
2024-04-12T19:20:40.839Z,18.04
2024-04-12T19:22:48.091Z,18.08
2024-04-12T19:24:50.445Z,17.93
2024-04-12T19:26:55.391Z,17.73
2024-04-12T19:29:00.686Z,18.00
2024-04-12T19:31:06.470Z,17.90
2024-04-12T19:33:09.106Z,17.87
2024-04-12T19:35:13.768Z,17.81
2024-04-12T19:37:15.633Z,17.83
2024-04-12T19:39:18.884Z,17.67
2024-04-12T19:41:23.631Z,17.56
2024-04-12T19:43:26.237Z,17.50
2024-04-12T19:45:33.409Z,17.52
2024-04-12T19:47:35.596Z,17.58
2024-04-12T19:49:40.510Z,17.62
2024-04-12T19:51:42.401Z,17.55
2024-04-12T19:53:47.167Z,17.41
2024-04-12T19:55:56.443Z,17.41
2024-04-12T19:58:01.544Z,17.33
2024-04-12T20:00:06.909Z,17.34
2024-04-12T20:02:15.167Z,17.36
2024-04-12T20:04:18.247Z,17.33
2024-04-12T20:06:27.258Z,17.12
2024-04-12T20:08:29.646Z,17.31
2024-04-12T20:10:34.992Z,17.22
2024-04-12T20:12:37.212Z,17.02
2024-04-12T20:14:47.470Z,17.09
2024-04-12T20:16:50.785Z,17.09
2024-04-12T20:19:00.920Z,17.00
2024-04-12T20:21:04.010Z,16.98
2024-04-12T20:23:09.870Z,17.01
2024-04-12T20:25:16.356Z,17.01
2024-04-12T20:27:23.760Z,16.98
2024-04-12T20:29:28.343Z,16.87
2024-04-12T20:31:39.084Z,16.97
2024-04-12T20:33:59.818Z,16.88
2024-04-12T20:36:26.642Z,16.78
2024-04-12T20:38:28.951Z,16.78
2024-04-12T20:40:53.087Z,16.75
2024-04-12T20:42:55.133Z,16.88
2024-04-12T20:45:00.604Z,16.39
2024-04-12T20:47:02.736Z,16.75
2024-04-12T20:49:08.159Z,16.59
2024-04-12T20:51:12.882Z,16.43
2024-04-12T20:53:17.717Z,16.57
2024-04-12T20:55:26.309Z,16.58
2024-04-12T20:57:30.876Z,16.70
2024-04-12T20:59:33.230Z,16.57
2024-04-12T21:01:47.768Z,16.62
2024-04-12T21:03:50.014Z,16.23
2024-04-12T21:05:59.063Z,16.47
2024-04-12T21:08:05.110Z,16.50
2024-04-12T21:10:10.128Z,16.61
2024-04-12T21:12:13.819Z,16.50
2024-04-12T21:14:20.335Z,16.55
2024-04-12T21:16:22.544Z,16.38
2024-04-12T21:18:27.545Z,16.52
2024-04-12T21:20:29.458Z,16.44
2024-04-12T21:22:35.069Z,16.33
2024-04-12T21:24:39.677Z,16.37
2024-04-12T21:26:44.658Z,16.40
2024-04-12T21:28:48.128Z,16.29
2024-04-12T21:30:53.071Z,16.40
2024-04-12T21:32:56.115Z,16.16
2024-04-12T21:35:00.919Z,16.37
2024-04-12T21:37:03.214Z,15.82
2024-04-12T21:39:08.279Z,16.24
2024-04-12T21:41:14.258Z,16.16
2024-04-12T21:43:19.184Z,16.04
2024-04-12T21:45:22.410Z,16.02
2024-04-12T21:47:26.921Z,16.09
2024-04-12T21:49:28.991Z,15.99
2024-04-12T21:51:34.755Z,16.00
2024-04-12T21:53:38.188Z,15.81
2024-04-12T21:55:43.205Z,15.89
2024-04-12T21:57:47.727Z,15.98
2024-04-12T21:59:52.563Z,15.97
2024-04-12T22:01:54.407Z,15.98
2024-04-12T22:03:59.002Z,16.02
2024-04-12T22:06:02.364Z,15.97
2024-04-12T22:08:09.312Z,15.79
2024-04-12T22:10:11.209Z,15.90
2024-04-12T22:12:15.963Z,15.90
2024-04-12T22:14:23.702Z,15.91
2024-04-12T22:16:28.197Z,15.95
2024-04-12T22:18:31.445Z,15.89
2024-04-12T22:20:36.170Z,15.77
2024-04-12T22:22:38.020Z,15.70
2024-04-12T22:24:43.793Z,15.76
2024-04-12T22:26:46.009Z,15.73
2024-04-12T22:28:50.716Z,15.77
2024-04-12T22:30:55.346Z,15.65
2024-04-12T22:33:00.043Z,15.53
2024-04-12T22:35:04.889Z,15.68
2024-04-12T22:37:09.330Z,15.60
2024-04-12T22:39:11.200Z,15.46
2024-04-12T22:41:13.151Z,15.53
2024-04-12T22:43:17.924Z,15.54
2024-04-12T22:45:19.886Z,15.58
2024-04-12T22:47:27.090Z,15.60
2024-04-12T22:49:29.280Z,15.63
2024-04-12T22:51:34.112Z,15.55
2024-04-12T22:53:36.569Z,15.60
2024-04-12T22:55:42.404Z,15.47
2024-04-12T22:57:48.812Z,15.37
2024-04-12T22:59:50.671Z,15.54
2024-04-12T23:01:55.165Z,15.50
2024-04-12T23:03:59.693Z,15.26
2024-04-12T23:06:04.824Z,15.52
2024-04-12T23:08:06.975Z,15.44
2024-04-12T23:10:11.782Z,15.45
2024-04-12T23:12:15.443Z,15.29
2024-04-12T23:14:20.144Z,15.50
2024-04-12T23:16:22.234Z,15.47
2024-04-12T23:18:26.734Z,15.37
2024-04-12T23:20:31.189Z,15.40
2024-04-12T23:22:36.151Z,15.37
2024-04-12T23:24:38.209Z,15.46
2024-04-12T23:26:43.220Z,15.38
2024-04-12T23:28:45.228Z,15.39
2024-04-12T23:30:50.142Z,15.30
2024-04-12T23:32:52.812Z,15.40
2024-04-12T23:34:57.577Z,15.34
2024-04-12T23:37:02.075Z,15.20
2024-04-12T23:39:07.528Z,15.40
2024-04-12T23:41:09.462Z,15.28
2024-04-12T23:43:13.816Z,15.28
2024-04-12T23:45:16.613Z,15.16
2024-04-12T23:47:21.511Z,15.27
2024-04-12T23:49:23.661Z,15.16
2024-04-12T23:51:31.297Z,14.88
2024-04-12T23:53:36.037Z,15.11
2024-04-12T23:55:40.456Z,15.22
2024-04-12T23:57:42.508Z,15.17
2024-04-12T23:59:50.017Z,15.13
